sensor_id;sensor_type;location;lat;lon;timestamp;P1;durP1;ratioP1;P2;durP2;ratioP2
66739;SDS011;53653;52.188;8.602;2023-05-13T00:01:13;12.87;;;7.80;;
66739;SDS011;53653;52.188;8.602;2023-05-13T00:03:40;12.82;;;7.45;;
66739;SDS011;53653;52.188;8.602;2023-05-13T00:06:05;13.47;;;7.47;;
66739;SDS011;53653;52.188;8.602;2023-05-13T00:08:31;15.43;;;7.83;;
66739;SDS011;53653;52.188;8.602;2023-05-13T00:10:57;12.70;;;7.20;;
66739;SDS011;53653;52.188;8.602;2023-05-13T00:13:22;14.70;;;7.40;;
66739;SDS011;53653;52.188;8.602;2023-05-13T00:15:48;11.53;;;7.10;;
66739;SDS011;53653;52.188;8.602;2023-05-13T00:18:13;11.88;;;7.40;;
66739;SDS011;53653;52.188;8.602;2023-05-13T00:20:39;12.70;;;6.97;;
66739;SDS011;53653;52.188;8.602;2023-05-13T00:23:05;11.57;;;7.17;;
66739;SDS011;53653;52.188;8.602;2023-05-13T00:25:32;14.23;;;7.22;;
66739;SDS011;53653;52.188;8.602;2023-05-13T00:27:58;10.32;;;6.82;;
66739;SDS011;53653;52.188;8.602;2023-05-13T00:30:23;14.60;;;7.20;;
66739;SDS011;53653;52.188;8.602;2023-05-13T00:32:49;12.20;;;7.25;;
66739;SDS011;53653;52.188;8.602;2023-05-13T00:35:15;13.73;;;7.13;;
66739;SDS011;53653;52.188;8.602;2023-05-13T00:37:41;14.80;;;7.17;;
66739;SDS011;53653;52.188;8.602;2023-05-13T00:40:09;11.48;;;6.68;;
66739;SDS011;53653;52.188;8.602;2023-05-13T00:42:43;12.60;;;7.30;;
66739;SDS011;53653;52.188;8.602;2023-05-13T00:45:09;11.23;;;7.00;;
66739;SDS011;53653;52.188;8.602;2023-05-13T00:47:35;13.13;;;8.10;;
66739;SDS011;53653;52.188;8.602;2023-05-13T00:50:01;12.83;;;7.27;;
66739;SDS011;53653;52.188;8.602;2023-05-13T00:52:27;10.45;;;7.22;;
66739;SDS011;53653;52.188;8.602;2023-05-13T00:54:53;11.23;;;6.90;;
66739;SDS011;53653;52.188;8.602;2023-05-13T00:57:19;13.43;;;7.40;;
66739;SDS011;53653;52.188;8.602;2023-05-13T00:59:45;13.68;;;7.35;;
66739;SDS011;53653;52.188;8.602;2023-05-13T01:12:58;12.13;;;7.18;;
66739;SDS011;53653;52.188;8.602;2023-05-13T01:15:31;15.07;;;7.90;;
66739;SDS011;53653;52.188;8.602;2023-05-13T01:18:20;12.43;;;7.25;;
66739;SDS011;53653;52.188;8.602;2023-05-13T01:20:46;12.02;;;7.60;;
66739;SDS011;53653;52.188;8.602;2023-05-13T01:23:12;15.47;;;7.53;;
66739;SDS011;53653;52.188;8.602;2023-05-13T01:25:39;16.30;;;7.30;;
66739;SDS011;53653;52.188;8.602;2023-05-13T01:28:05;14.57;;;7.57;;
66739;SDS011;53653;52.188;8.602;2023-05-13T01:30:32;12.18;;;7.18;;
66739;SDS011;53653;52.188;8.602;2023-05-13T01:32:59;13.82;;;8.23;;
66739;SDS011;53653;52.188;8.602;2023-05-13T01:35:25;14.03;;;7.50;;
66739;SDS011;53653;52.188;8.602;2023-05-13T01:37:53;13.38;;;8.07;;
66739;SDS011;53653;52.188;8.602;2023-05-13T01:40:21;12.68;;;7.68;;
66739;SDS011;53653;52.188;8.602;2023-05-13T01:42:47;12.77;;;7.10;;
66739;SDS011;53653;52.188;8.602;2023-05-13T01:45:13;13.10;;;7.15;;
66739;SDS011;53653;52.188;8.602;2023-05-13T01:47:39;11.52;;;7.30;;
66739;SDS011;53653;52.188;8.602;2023-05-13T01:50:04;10.13;;;7.33;;
66739;SDS011;53653;52.188;8.602;2023-05-13T01:52:32;15.55;;;7.90;;
66739;SDS011;53653;52.188;8.602;2023-05-13T01:54:58;13.05;;;7.57;;
66739;SDS011;53653;52.188;8.602;2023-05-13T01:57:24;12.27;;;7.30;;
66739;SDS011;53653;52.188;8.602;2023-05-13T01:59:49;12.43;;;7.27;;
66739;SDS011;53653;52.188;8.602;2023-05-13T02:02:15;18.17;;;7.50;;
66739;SDS011;53653;52.188;8.602;2023-05-13T02:04:41;13.93;;;7.33;;
66739;SDS011;53653;52.188;8.602;2023-05-13T02:07:06;12.63;;;7.45;;
66739;SDS011;53653;52.188;8.602;2023-05-13T02:09:33;13.07;;;7.97;;
66739;SDS011;53653;52.188;8.602;2023-05-13T02:11:58;14.40;;;7.53;;
66739;SDS011;53653;52.188;8.602;2023-05-13T02:14:24;11.52;;;7.30;;
66739;SDS011;53653;52.188;8.602;2023-05-13T02:16:50;13.15;;;7.22;;
66739;SDS011;53653;52.188;8.602;2023-05-13T02:19:16;12.20;;;7.40;;
66739;SDS011;53653;52.188;8.602;2023-05-13T02:21:41;13.20;;;7.68;;
66739;SDS011;53653;52.188;8.602;2023-05-13T02:24:08;13.77;;;8.73;;
66739;SDS011;53653;52.188;8.602;2023-05-13T02:26:34;12.18;;;7.82;;
66739;SDS011;53653;52.188;8.602;2023-05-13T02:29:00;14.10;;;7.80;;
66739;SDS011;53653;52.188;8.602;2023-05-13T02:31:26;13.40;;;7.95;;
66739;SDS011;53653;52.188;8.602;2023-05-13T02:33:51;18.17;;;7.90;;
66739;SDS011;53653;52.188;8.602;2023-05-13T02:36:17;15.90;;;7.87;;
66739;SDS011;53653;52.188;8.602;2023-05-13T02:38:43;16.80;;;7.95;;
66739;SDS011;53653;52.188;8.602;2023-05-13T02:41:09;13.75;;;7.60;;
66739;SDS011;53653;52.188;8.602;2023-05-13T02:43:35;16.37;;;8.37;;
66739;SDS011;53653;52.188;8.602;2023-05-13T02:46:03;11.48;;;7.65;;
66739;SDS011;53653;52.188;8.602;2023-05-13T02:48:30;15.75;;;8.60;;
66739;SDS011;53653;52.188;8.602;2023-05-13T02:50:56;14.17;;;8.00;;
66739;SDS011;53653;52.188;8.602;2023-05-13T02:53:22;13.25;;;8.38;;
66739;SDS011;53653;52.188;8.602;2023-05-13T02:55:52;15.07;;;8.55;;
66739;SDS011;53653;52.188;8.602;2023-05-13T02:58:22;13.27;;;8.30;;
66739;SDS011;53653;52.188;8.602;2023-05-13T03:00:48;13.82;;;8.35;;
66739;SDS011;53653;52.188;8.602;2023-05-13T03:03:14;15.52;;;9.10;;
66739;SDS011;53653;52.188;8.602;2023-05-13T03:05:39;13.23;;;8.80;;
66739;SDS011;53653;52.188;8.602;2023-05-13T03:08:05;17.88;;;9.68;;
66739;SDS011;53653;52.188;8.602;2023-05-13T03:10:31;16.30;;;8.80;;
66739;SDS011;53653;52.188;8.602;2023-05-13T03:12:56;13.95;;;9.05;;
66739;SDS011;53653;52.188;8.602;2023-05-13T03:15:22;15.20;;;9.70;;
66739;SDS011;53653;52.188;8.602;2023-05-13T03:17:48;18.55;;;9.68;;
66739;SDS011;53653;52.188;8.602;2023-05-13T03:20:14;18.33;;;9.93;;
66739;SDS011;53653;52.188;8.602;2023-05-13T03:22:40;14.03;;;9.63;;
66739;SDS011;53653;52.188;8.602;2023-05-13T03:25:06;16.90;;;10.27;;
66739;SDS011;53653;52.188;8.602;2023-05-13T03:27:43;15.27;;;9.75;;
66739;SDS011;53653;52.188;8.602;2023-05-13T03:30:09;17.13;;;9.63;;
66739;SDS011;53653;52.188;8.602;2023-05-13T03:32:43;17.80;;;9.83;;
66739;SDS011;53653;52.188;8.602;2023-05-13T03:35:10;15.50;;;9.77;;
66739;SDS011;53653;52.188;8.602;2023-05-13T03:37:36;15.48;;;9.75;;
66739;SDS011;53653;52.188;8.602;2023-05-13T03:40:03;17.38;;;10.35;;
66739;SDS011;53653;52.188;8.602;2023-05-13T03:42:29;17.80;;;10.50;;
66739;SDS011;53653;52.188;8.602;2023-05-13T03:44:56;21.63;;;10.37;;
66739;SDS011;53653;52.188;8.602;2023-05-13T03:47:21;15.90;;;10.07;;
66739;SDS011;53653;52.188;8.602;2023-05-13T03:49:47;15.98;;;10.23;;
66739;SDS011;53653;52.188;8.602;2023-05-13T03:52:14;16.30;;;10.00;;
66739;SDS011;53653;52.188;8.602;2023-05-13T03:54:40;16.70;;;10.27;;
66739;SDS011;53653;52.188;8.602;2023-05-13T03:57:06;15.75;;;9.88;;
66739;SDS011;53653;52.188;8.602;2023-05-13T03:59:32;17.45;;;10.57;;
66739;SDS011;53653;52.188;8.602;2023-05-13T04:01:58;16.57;;;10.40;;
66739;SDS011;53653;52.188;8.602;2023-05-13T04:04:23;16.43;;;9.33;;
66739;SDS011;53653;52.188;8.602;2023-05-13T04:06:49;15.00;;;9.55;;
66739;SDS011;53653;52.188;8.602;2023-05-13T04:09:14;14.73;;;10.07;;
66739;SDS011;53653;52.188;8.602;2023-05-13T04:11:40;19.17;;;10.27;;
66739;SDS011;53653;52.188;8.602;2023-05-13T04:14:06;17.23;;;10.77;;
66739;SDS011;53653;52.188;8.602;2023-05-13T04:16:31;17.43;;;10.33;;
66739;SDS011;53653;52.188;8.602;2023-05-13T04:18:57;17.67;;;10.27;;
66739;SDS011;53653;52.188;8.602;2023-05-13T04:21:22;17.37;;;10.10;;
66739;SDS011;53653;52.188;8.602;2023-05-13T04:23:48;17.33;;;10.17;;
66739;SDS011;53653;52.188;8.602;2023-05-13T04:26:14;15.68;;;8.52;;
66739;SDS011;53653;52.188;8.602;2023-05-13T04:28:39;15.97;;;8.30;;
66739;SDS011;53653;52.188;8.602;2023-05-13T04:31:05;15.23;;;8.38;;
66739;SDS011;53653;52.188;8.602;2023-05-13T04:33:34;13.80;;;9.07;;
66739;SDS011;53653;52.188;8.602;2023-05-13T04:35:59;16.20;;;9.57;;
66739;SDS011;53653;52.188;8.602;2023-05-13T04:38:25;14.97;;;9.30;;
66739;SDS011;53653;52.188;8.602;2023-05-13T04:40:51;18.33;;;8.13;;
66739;SDS011;53653;52.188;8.602;2023-05-13T04:43:22;14.93;;;8.25;;
66739;SDS011;53653;52.188;8.602;2023-05-13T04:45:54;16.15;;;8.02;;
66739;SDS011;53653;52.188;8.602;2023-05-13T04:48:20;12.00;;;7.90;;
66739;SDS011;53653;52.188;8.602;2023-05-13T04:50:46;14.93;;;8.45;;
66739;SDS011;53653;52.188;8.602;2023-05-13T04:53:13;12.33;;;7.63;;
66739;SDS011;53653;52.188;8.602;2023-05-13T04:55:39;12.98;;;7.72;;
66739;SDS011;53653;52.188;8.602;2023-05-13T04:58:04;12.35;;;7.45;;
66739;SDS011;53653;52.188;8.602;2023-05-13T05:00:31;13.93;;;7.20;;
66739;SDS011;53653;52.188;8.602;2023-05-13T05:02:56;14.15;;;7.90;;
66739;SDS011;53653;52.188;8.602;2023-05-13T05:05:22;14.40;;;7.63;;
66739;SDS011;53653;52.188;8.602;2023-05-13T05:07:48;13.67;;;7.60;;
66739;SDS011;53653;52.188;8.602;2023-05-13T05:10:14;17.77;;;7.80;;
66739;SDS011;53653;52.188;8.602;2023-05-13T05:12:44;13.07;;;7.38;;
66739;SDS011;53653;52.188;8.602;2023-05-13T05:15:11;15.98;;;7.82;;
66739;SDS011;53653;52.188;8.602;2023-05-13T05:17:41;13.57;;;7.95;;
66739;SDS011;53653;52.188;8.602;2023-05-13T05:20:07;13.57;;;7.57;;
66739;SDS011;53653;52.188;8.602;2023-05-13T05:22:33;11.88;;;7.47;;
66739;SDS011;53653;52.188;8.602;2023-05-13T05:25:00;12.32;;;7.63;;
66739;SDS011;53653;52.188;8.602;2023-05-13T05:27:26;12.30;;;6.93;;
66739;SDS011;53653;52.188;8.602;2023-05-13T05:29:51;13.97;;;7.40;;
66739;SDS011;53653;52.188;8.602;2023-05-13T05:32:16;16.27;;;9.47;;
66739;SDS011;53653;52.188;8.602;2023-05-13T05:34:43;16.55;;;8.30;;
66739;SDS011;53653;52.188;8.602;2023-05-13T05:37:08;11.23;;;7.43;;
66739;SDS011;53653;52.188;8.602;2023-05-13T05:39:35;13.07;;;7.30;;
66739;SDS011;53653;52.188;8.602;2023-05-13T05:42:01;13.73;;;8.10;;
66739;SDS011;53653;52.188;8.602;2023-05-13T05:44:26;13.43;;;7.93;;
66739;SDS011;53653;52.188;8.602;2023-05-13T05:46:52;12.70;;;8.10;;
66739;SDS011;53653;52.188;8.602;2023-05-13T05:49:18;12.50;;;7.55;;
66739;SDS011;53653;52.188;8.602;2023-05-13T05:51:43;13.77;;;8.00;;
66739;SDS011;53653;52.188;8.602;2023-05-13T05:54:09;15.95;;;7.60;;
66739;SDS011;53653;52.188;8.602;2023-05-13T05:56:36;14.00;;;7.65;;
66739;SDS011;53653;52.188;8.602;2023-05-13T05:59:01;13.67;;;8.33;;
66739;SDS011;53653;52.188;8.602;2023-05-13T06:01:28;13.45;;;8.00;;
66739;SDS011;53653;52.188;8.602;2023-05-13T06:03:58;13.97;;;7.37;;
66739;SDS011;53653;52.188;8.602;2023-05-13T06:06:23;14.15;;;7.85;;
66739;SDS011;53653;52.188;8.602;2023-05-13T06:08:49;12.17;;;7.20;;
66739;SDS011;53653;52.188;8.602;2023-05-13T06:11:14;12.60;;;6.90;;
66739;SDS011;53653;52.188;8.602;2023-05-13T06:13:41;11.97;;;6.60;;
66739;SDS011;53653;52.188;8.602;2023-05-13T06:16:08;14.23;;;7.25;;
66739;SDS011;53653;52.188;8.602;2023-05-13T06:18:36;10.65;;;6.57;;
66739;SDS011;53653;52.188;8.602;2023-05-13T06:21:02;11.68;;;6.32;;
66739;SDS011;53653;52.188;8.602;2023-05-13T06:23:27;14.57;;;7.20;;
66739;SDS011;53653;52.188;8.602;2023-05-13T06:25:53;12.80;;;7.37;;
66739;SDS011;53653;52.188;8.602;2023-05-13T06:28:18;17.15;;;7.25;;
66739;SDS011;53653;52.188;8.602;2023-05-13T06:30:44;10.97;;;7.03;;
66739;SDS011;53653;52.188;8.602;2023-05-13T06:33:10;12.50;;;7.20;;
66739;SDS011;53653;52.188;8.602;2023-05-13T06:35:36;12.40;;;7.23;;
66739;SDS011;53653;52.188;8.602;2023-05-13T06:38:04;13.82;;;7.22;;
66739;SDS011;53653;52.188;8.602;2023-05-13T06:40:30;10.63;;;6.60;;
66739;SDS011;53653;52.188;8.602;2023-05-13T06:42:55;13.80;;;7.30;;
66739;SDS011;53653;52.188;8.602;2023-05-13T06:45:27;13.82;;;6.80;;
66739;SDS011;53653;52.188;8.602;2023-05-13T06:47:53;12.52;;;6.72;;
66739;SDS011;53653;52.188;8.602;2023-05-13T06:50:19;11.77;;;7.40;;
66739;SDS011;53653;52.188;8.602;2023-05-13T06:52:45;11.90;;;7.10;;
66739;SDS011;53653;52.188;8.602;2023-05-13T06:55:10;11.73;;;7.50;;
66739;SDS011;53653;52.188;8.602;2023-05-13T06:57:36;12.57;;;7.13;;
66739;SDS011;53653;52.188;8.602;2023-05-13T07:00:04;11.20;;;7.05;;
66739;SDS011;53653;52.188;8.602;2023-05-13T07:02:30;12.30;;;6.80;;
66739;SDS011;53653;52.188;8.602;2023-05-13T07:04:55;13.53;;;7.40;;
66739;SDS011;53653;52.188;8.602;2023-05-13T07:07:21;12.55;;;6.90;;
66739;SDS011;53653;52.188;8.602;2023-05-13T07:09:46;15.20;;;7.80;;
66739;SDS011;53653;52.188;8.602;2023-05-13T07:12:11;11.90;;;6.90;;
66739;SDS011;53653;52.188;8.602;2023-05-13T07:14:38;11.45;;;6.93;;
66739;SDS011;53653;52.188;8.602;2023-05-13T07:17:03;12.40;;;6.40;;
66739;SDS011;53653;52.188;8.602;2023-05-13T07:19:29;11.13;;;6.63;;
66739;SDS011;53653;52.188;8.602;2023-05-13T07:21:55;10.48;;;6.70;;
66739;SDS011;53653;52.188;8.602;2023-05-13T07:24:20;14.90;;;7.50;;
66739;SDS011;53653;52.188;8.602;2023-05-13T07:26:46;12.90;;;7.13;;
66739;SDS011;53653;52.188;8.602;2023-05-13T07:29:12;14.13;;;7.70;;
66739;SDS011;53653;52.188;8.602;2023-05-13T07:31:37;11.67;;;6.70;;
66739;SDS011;53653;52.188;8.602;2023-05-13T07:34:03;12.77;;;7.37;;
66739;SDS011;53653;52.188;8.602;2023-05-13T07:36:28;10.98;;;6.95;;
66739;SDS011;53653;52.188;8.602;2023-05-13T07:38:54;11.83;;;6.90;;
66739;SDS011;53653;52.188;8.602;2023-05-13T07:41:19;10.73;;;7.03;;
66739;SDS011;53653;52.188;8.602;2023-05-13T07:43:45;13.63;;;7.20;;
66739;SDS011;53653;52.188;8.602;2023-05-13T07:46:11;11.03;;;7.33;;
66739;SDS011;53653;52.188;8.602;2023-05-13T07:48:36;15.93;;;6.93;;
66739;SDS011;53653;52.188;8.602;2023-05-13T07:51:01;13.63;;;7.80;;
66739;SDS011;53653;52.188;8.602;2023-05-13T07:53:27;15.33;;;8.27;;
66739;SDS011;53653;52.188;8.602;2023-05-13T07:55:53;13.00;;;7.87;;
66739;SDS011;53653;52.188;8.602;2023-05-13T07:58:18;12.93;;;7.83;;
66739;SDS011;53653;52.188;8.602;2023-05-13T08:00:44;12.48;;;7.68;;
66739;SDS011;53653;52.188;8.602;2023-05-13T08:03:10;14.30;;;7.90;;
66739;SDS011;53653;52.188;8.602;2023-05-13T08:05:36;12.57;;;7.05;;
66739;SDS011;53653;52.188;8.602;2023-05-13T08:08:02;13.63;;;7.55;;
66739;SDS011;53653;52.188;8.602;2023-05-13T08:10:28;18.53;;;8.07;;
66739;SDS011;53653;52.188;8.602;2023-05-13T08:12:54;11.98;;;7.43;;
66739;SDS011;53653;52.188;8.602;2023-05-13T08:15:22;16.35;;;7.95;;
66739;SDS011;53653;52.188;8.602;2023-05-13T08:17:48;12.77;;;7.13;;
66739;SDS011;53653;52.188;8.602;2023-05-13T08:20:13;13.03;;;8.10;;
66739;SDS011;53653;52.188;8.602;2023-05-13T08:22:39;13.93;;;8.05;;
66739;SDS011;53653;52.188;8.602;2023-05-13T08:25:05;13.10;;;8.15;;
66739;SDS011;53653;52.188;8.602;2023-05-13T08:27:31;16.27;;;7.93;;
66739;SDS011;53653;52.188;8.602;2023-05-13T08:29:56;12.87;;;7.50;;
66739;SDS011;53653;52.188;8.602;2023-05-13T08:32:22;13.13;;;8.35;;
66739;SDS011;53653;52.188;8.602;2023-05-13T08:34:47;16.10;;;8.47;;
66739;SDS011;53653;52.188;8.602;2023-05-13T08:37:13;13.53;;;7.53;;
66739;SDS011;53653;52.188;8.602;2023-05-13T08:39:38;12.17;;;7.93;;
66739;SDS011;53653;52.188;8.602;2023-05-13T08:42:04;14.67;;;7.30;;
66739;SDS011;53653;52.188;8.602;2023-05-13T08:44:32;15.10;;;7.60;;
66739;SDS011;53653;52.188;8.602;2023-05-13T08:47:08;12.97;;;7.57;;
66739;SDS011;53653;52.188;8.602;2023-05-13T08:49:40;12.02;;;7.28;;
66739;SDS011;53653;52.188;8.602;2023-05-13T08:52:06;12.05;;;7.57;;
66739;SDS011;53653;52.188;8.602;2023-05-13T08:54:32;14.27;;;7.68;;
66739;SDS011;53653;52.188;8.602;2023-05-13T08:56:58;13.33;;;5.40;;
66739;SDS011;53653;52.188;8.602;2023-05-13T08:59:24;14.27;;;5.80;;
66739;SDS011;53653;52.188;8.602;2023-05-13T09:01:49;15.00;;;8.23;;
66739;SDS011;53653;52.188;8.602;2023-05-13T09:04:16;14.75;;;7.47;;
66739;SDS011;53653;52.188;8.602;2023-05-13T09:06:45;14.00;;;7.50;;
66739;SDS011;53653;52.188;8.602;2023-05-13T09:09:12;13.02;;;8.15;;
66739;SDS011;53653;52.188;8.602;2023-05-13T09:11:38;11.70;;;7.43;;
66739;SDS011;53653;52.188;8.602;2023-05-13T09:14:04;17.30;;;8.20;;
66739;SDS011;53653;52.188;8.602;2023-05-13T09:16:31;13.55;;;7.90;;
66739;SDS011;53653;52.188;8.602;2023-05-13T09:18:58;12.65;;;7.25;;
66739;SDS011;53653;52.188;8.602;2023-05-13T09:21:25;18.08;;;8.10;;
66739;SDS011;53653;52.188;8.602;2023-05-13T09:24:02;15.03;;;8.13;;
66739;SDS011;53653;52.188;8.602;2023-05-13T09:26:31;14.88;;;8.35;;
66739;SDS011;53653;52.188;8.602;2023-05-13T09:31:47;11.20;;;7.47;;
66739;SDS011;53653;52.188;8.602;2023-05-13T09:34:14;10.10;;;6.05;;
66739;SDS011;53653;52.188;8.602;2023-05-13T09:36:54;11.75;;;7.50;;
66739;SDS011;53653;52.188;8.602;2023-05-13T09:39:20;12.02;;;7.50;;
66739;SDS011;53653;52.188;8.602;2023-05-13T09:41:45;13.40;;;7.13;;
66739;SDS011;53653;52.188;8.602;2023-05-13T09:44:11;17.27;;;7.32;;
66739;SDS011;53653;52.188;8.602;2023-05-13T09:46:37;10.77;;;6.93;;
66739;SDS011;53653;52.188;8.602;2023-05-13T09:49:03;11.80;;;6.70;;
66739;SDS011;53653;52.188;8.602;2023-05-13T09:51:28;13.53;;;7.10;;
66739;SDS011;53653;52.188;8.602;2023-05-13T09:54:01;12.52;;;7.90;;
66739;SDS011;53653;52.188;8.602;2023-05-13T09:56:28;10.77;;;6.20;;
66739;SDS011;53653;52.188;8.602;2023-05-13T09:58:55;11.20;;;6.65;;
66739;SDS011;53653;52.188;8.602;2023-05-13T10:01:20;18.08;;;8.07;;
66739;SDS011;53653;52.188;8.602;2023-05-13T10:03:46;16.80;;;8.40;;
66739;SDS011;53653;52.188;8.602;2023-05-13T10:06:15;13.15;;;7.13;;
66739;SDS011;53653;52.188;8.602;2023-05-13T10:08:43;11.88;;;7.38;;
66739;SDS011;53653;52.188;8.602;2023-05-13T10:11:11;11.38;;;6.63;;
66739;SDS011;53653;52.188;8.602;2023-05-13T10:13:39;13.55;;;7.45;;
66739;SDS011;53653;52.188;8.602;2023-05-13T10:16:06;13.27;;;7.23;;
66739;SDS011;53653;52.188;8.602;2023-05-13T10:18:33;11.70;;;6.40;;
66739;SDS011;53653;52.188;8.602;2023-05-13T10:20:59;12.43;;;6.80;;
66739;SDS011;53653;52.188;8.602;2023-05-13T10:23:26;11.23;;;7.25;;
66739;SDS011;53653;52.188;8.602;2023-05-13T10:25:52;12.60;;;6.53;;
66739;SDS011;53653;52.188;8.602;2023-05-13T10:28:19;13.03;;;7.57;;
66739;SDS011;53653;52.188;8.602;2023-05-13T10:30:44;14.98;;;7.22;;
66739;SDS011;53653;52.188;8.602;2023-05-13T10:33:10;14.47;;;7.47;;
66739;SDS011;53653;52.188;8.602;2023-05-13T10:35:37;11.93;;;7.40;;
66739;SDS011;53653;52.188;8.602;2023-05-13T10:45:36;10.30;;;5.65;;
66739;SDS011;53653;52.188;8.602;2023-05-13T10:48:05;12.30;;;6.35;;
66739;SDS011;53653;52.188;8.602;2023-05-13T10:50:31;19.70;;;7.33;;
66739;SDS011;53653;52.188;8.602;2023-05-13T10:53:05;12.32;;;6.85;;
66739;SDS011;53653;52.188;8.602;2023-05-13T10:55:32;14.88;;;7.68;;
66739;SDS011;53653;52.188;8.602;2023-05-13T10:58:08;11.25;;;7.18;;
66739;SDS011;53653;52.188;8.602;2023-05-13T11:00:38;10.57;;;7.05;;
66739;SDS011;53653;52.188;8.602;2023-05-13T11:03:27;13.83;;;6.70;;
66739;SDS011;53653;52.188;8.602;2023-05-13T11:06:13;11.40;;;6.95;;
66739;SDS011;53653;52.188;8.602;2023-05-13T11:08:44;11.25;;;5.63;;
66739;SDS011;53653;52.188;8.602;2023-05-13T11:16:20;9.23;;;4.97;;
66739;SDS011;53653;52.188;8.602;2023-05-13T11:18:52;10.95;;;5.97;;
66739;SDS011;53653;52.188;8.602;2023-05-13T11:21:39;10.15;;;6.22;;
66739;SDS011;53653;52.188;8.602;2023-05-13T11:24:04;10.80;;;6.63;;
66739;SDS011;53653;52.188;8.602;2023-05-13T11:29:37;11.27;;;6.77;;
66739;SDS011;53653;52.188;8.602;2023-05-13T11:32:03;13.07;;;7.03;;
66739;SDS011;53653;52.188;8.602;2023-05-13T11:34:31;14.63;;;7.03;;
66739;SDS011;53653;52.188;8.602;2023-05-13T11:39:28;10.23;;;5.93;;
66739;SDS011;53653;52.188;8.602;2023-05-13T11:41:54;10.40;;;5.90;;
66739;SDS011;53653;52.188;8.602;2023-05-13T11:44:25;11.43;;;6.50;;
66739;SDS011;53653;52.188;8.602;2023-05-13T11:46:59;10.30;;;6.85;;
66739;SDS011;53653;52.188;8.602;2023-05-13T11:52:01;10.63;;;6.90;;
66739;SDS011;53653;52.188;8.602;2023-05-13T11:54:42;14.20;;;7.20;;
66739;SDS011;53653;52.188;8.602;2023-05-13T12:02:19;10.80;;;5.97;;
66739;SDS011;53653;52.188;8.602;2023-05-13T12:04:45;10.55;;;6.25;;
66739;SDS011;53653;52.188;8.602;2023-05-13T12:07:11;12.00;;;7.57;;
66739;SDS011;53653;52.188;8.602;2023-05-13T12:09:36;14.43;;;8.30;;
66739;SDS011;53653;52.188;8.602;2023-05-13T12:12:02;12.75;;;7.25;;
66739;SDS011;53653;52.188;8.602;2023-05-13T12:14:27;11.20;;;7.40;;
66739;SDS011;53653;52.188;8.602;2023-05-13T12:16:55;10.73;;;7.53;;
66739;SDS011;53653;52.188;8.602;2023-05-13T12:19:21;11.98;;;7.38;;
66739;SDS011;53653;52.188;8.602;2023-05-13T12:21:48;15.27;;;7.80;;
66739;SDS011;53653;52.188;8.602;2023-05-13T12:24:21;11.57;;;6.53;;
66739;SDS011;53653;52.188;8.602;2023-05-13T12:26:47;12.77;;;7.05;;
66739;SDS011;53653;52.188;8.602;2023-05-13T12:29:13;13.23;;;7.00;;
66739;SDS011;53653;52.188;8.602;2023-05-13T12:31:42;10.57;;;5.90;;
66739;SDS011;53653;52.188;8.602;2023-05-13T12:34:32;11.70;;;7.30;;
66739;SDS011;53653;52.188;8.602;2023-05-13T12:37:11;10.43;;;6.77;;
66739;SDS011;53653;52.188;8.602;2023-05-13T12:39:41;10.35;;;6.47;;
66739;SDS011;53653;52.188;8.602;2023-05-13T12:42:13;11.75;;;5.78;;
66739;SDS011;53653;52.188;8.602;2023-05-13T12:44:40;10.15;;;5.70;;
66739;SDS011;53653;52.188;8.602;2023-05-13T12:47:10;12.75;;;6.10;;
66739;SDS011;53653;52.188;8.602;2023-05-13T12:49:52;10.67;;;5.87;;
66739;SDS011;53653;52.188;8.602;2023-05-13T12:52:19;8.38;;;5.60;;
66739;SDS011;53653;52.188;8.602;2023-05-13T12:54:46;9.18;;;5.28;;
66739;SDS011;53653;52.188;8.602;2023-05-13T12:57:14;10.25;;;5.68;;
66739;SDS011;53653;52.188;8.602;2023-05-13T12:59:40;10.90;;;5.80;;
66739;SDS011;53653;52.188;8.602;2023-05-13T13:02:06;11.73;;;5.30;;
66739;SDS011;53653;52.188;8.602;2023-05-13T13:04:32;10.15;;;5.60;;
66739;SDS011;53653;52.188;8.602;2023-05-13T13:06:57;13.07;;;5.60;;
66739;SDS011;53653;52.188;8.602;2023-05-13T13:09:23;9.73;;;5.40;;
66739;SDS011;53653;52.188;8.602;2023-05-13T13:11:48;9.27;;;5.45;;
66739;SDS011;53653;52.188;8.602;2023-05-13T13:14:14;12.47;;;5.60;;
66739;SDS011;53653;52.188;8.602;2023-05-13T13:16:40;9.47;;;5.80;;
66739;SDS011;53653;52.188;8.602;2023-05-13T13:19:05;11.40;;;5.40;;
66739;SDS011;53653;52.188;8.602;2023-05-13T13:21:31;11.37;;;5.30;;
66739;SDS011;53653;52.188;8.602;2023-05-13T13:23:56;9.27;;;5.40;;
66739;SDS011;53653;52.188;8.602;2023-05-13T13:26:22;9.17;;;5.40;;
66739;SDS011;53653;52.188;8.602;2023-05-13T13:28:48;8.90;;;5.93;;
66739;SDS011;53653;52.188;8.602;2023-05-13T13:31:13;13.97;;;6.30;;
66739;SDS011;53653;52.188;8.602;2023-05-13T13:33:39;10.60;;;5.97;;
66739;SDS011;53653;52.188;8.602;2023-05-13T13:36:04;12.67;;;6.27;;
66739;SDS011;53653;52.188;8.602;2023-05-13T13:38:30;10.00;;;5.67;;
66739;SDS011;53653;52.188;8.602;2023-05-13T13:40:55;9.87;;;5.40;;
66739;SDS011;53653;52.188;8.602;2023-05-13T13:43:21;8.80;;;4.97;;
66739;SDS011;53653;52.188;8.602;2023-05-13T13:45:47;15.23;;;5.90;;
66739;SDS011;53653;52.188;8.602;2023-05-13T13:48:13;10.20;;;5.20;;
66739;SDS011;53653;52.188;8.602;2023-05-13T13:50:38;8.77;;;5.20;;
66739;SDS011;53653;52.188;8.602;2023-05-13T13:53:04;10.40;;;5.50;;
66739;SDS011;53653;52.188;8.602;2023-05-13T13:55:29;10.07;;;5.40;;
66739;SDS011;53653;52.188;8.602;2023-05-13T13:57:55;9.20;;;5.40;;
66739;SDS011;53653;52.188;8.602;2023-05-13T14:00:21;13.63;;;5.40;;
66739;SDS011;53653;52.188;8.602;2023-05-13T14:02:46;11.07;;;5.68;;
66739;SDS011;53653;52.188;8.602;2023-05-13T14:05:12;11.97;;;6.13;;
66739;SDS011;53653;52.188;8.602;2023-05-13T14:07:38;11.65;;;5.10;;
66739;SDS011;53653;52.188;8.602;2023-05-13T14:10:04;9.60;;;4.97;;
66739;SDS011;53653;52.188;8.602;2023-05-13T14:12:30;11.93;;;5.00;;
66739;SDS011;53653;52.188;8.602;2023-05-13T14:14:56;9.73;;;5.55;;
66739;SDS011;53653;52.188;8.602;2023-05-13T14:17:22;9.85;;;5.40;;
66739;SDS011;53653;52.188;8.602;2023-05-13T14:19:48;7.37;;;3.70;;
66739;SDS011;53653;52.188;8.602;2023-05-13T14:22:19;8.88;;;4.97;;
66739;SDS011;53653;52.188;8.602;2023-05-13T14:24:46;8.68;;;4.82;;
66739;SDS011;53653;52.188;8.602;2023-05-13T14:27:12;12.43;;;5.20;;
66739;SDS011;53653;52.188;8.602;2023-05-13T14:29:38;12.03;;;4.70;;
66739;SDS011;53653;52.188;8.602;2023-05-13T14:32:04;9.13;;;5.13;;
66739;SDS011;53653;52.188;8.602;2023-05-13T14:34:31;10.60;;;4.95;;
66739;SDS011;53653;52.188;8.602;2023-05-13T14:36:56;9.70;;;5.37;;
66739;SDS011;53653;52.188;8.602;2023-05-13T14:39:22;11.15;;;5.07;;
66739;SDS011;53653;52.188;8.602;2023-05-13T14:41:48;8.93;;;4.70;;
66739;SDS011;53653;52.188;8.602;2023-05-13T14:44:14;8.70;;;4.03;;
66739;SDS011;53653;52.188;8.602;2023-05-13T14:46:39;8.73;;;4.77;;
66739;SDS011;53653;52.188;8.602;2023-05-13T14:49:06;9.50;;;4.68;;
66739;SDS011;53653;52.188;8.602;2023-05-13T14:51:32;9.45;;;5.00;;
66739;SDS011;53653;52.188;8.602;2023-05-13T14:53:59;8.75;;;4.68;;
66739;SDS011;53653;52.188;8.602;2023-05-13T14:56:25;10.03;;;4.47;;
66739;SDS011;53653;52.188;8.602;2023-05-13T14:58:51;10.80;;;5.00;;
66739;SDS011;53653;52.188;8.602;2023-05-13T15:01:17;10.52;;;5.00;;
66739;SDS011;53653;52.188;8.602;2023-05-13T15:03:43;9.63;;;5.30;;
66739;SDS011;53653;52.188;8.602;2023-05-13T15:06:08;10.23;;;3.78;;
66739;SDS011;53653;52.188;8.602;2023-05-13T15:08:34;9.53;;;4.70;;
66739;SDS011;53653;52.188;8.602;2023-05-13T15:11:01;7.80;;;4.90;;
66739;SDS011;53653;52.188;8.602;2023-05-13T15:13:26;9.03;;;4.33;;